sensor_id;sensor_type;location;lat;lon;timestamp;P1;durP1;ratioP1;P2;durP2;ratioP2
7935;SDS011;4013;49.744;8.118;2024-02-23T05:32:26;2.47;;;1.23;;
7935;SDS011;4013;49.744;8.118;2024-02-23T05:34:53;3.00;;;1.07;;
7935;SDS011;4013;49.744;8.118;2024-02-23T05:37:21;2.67;;;1.27;;
7935;SDS011;4013;49.744;8.118;2024-02-23T05:39:49;1.83;;;0.93;;
7935;SDS011;4013;49.744;8.118;2024-02-23T05:42:18;1.40;;;1.00;;
7935;SDS011;4013;49.744;8.118;2024-02-23T05:44:45;5.57;;;1.40;;
7935;SDS011;4013;49.744;8.118;2024-02-23T05:47:13;2.10;;;1.07;;
7935;SDS011;4013;49.744;8.118;2024-02-23T05:49:48;3.17;;;1.20;;
7935;SDS011;4013;49.744;8.118;2024-02-23T05:52:16;1.57;;;1.30;;
7935;SDS011;4013;49.744;8.118;2024-02-23T05:54:43;4.63;;;1.47;;
7935;SDS011;4013;49.744;8.118;2024-02-23T05:57:10;3.87;;;1.27;;
7935;SDS011;4013;49.744;8.118;2024-02-23T05:59:37;2.90;;;0.90;;
7935;SDS011;4013;49.744;8.118;2024-02-23T06:02:04;2.17;;;0.93;;
7935;SDS011;4013;49.744;8.118;2024-02-23T06:04:31;1.90;;;0.90;;
7935;SDS011;4013;49.744;8.118;2024-02-23T06:07:04;4.03;;;1.23;;
7935;SDS011;4013;49.744;8.118;2024-02-23T06:09:31;1.20;;;1.00;;
7935;SDS011;4013;49.744;8.118;2024-02-23T06:11:58;3.43;;;1.60;;
7935;SDS011;4013;49.744;8.118;2024-02-23T06:14:26;4.77;;;1.10;;
7935;SDS011;4013;49.744;8.118;2024-02-23T06:16:54;3.17;;;1.30;;
7935;SDS011;4013;49.744;8.118;2024-02-23T06:19:21;4.13;;;1.20;;
7935;SDS011;4013;49.744;8.118;2024-02-23T06:21:48;2.57;;;0.97;;
7935;SDS011;4013;49.744;8.118;2024-02-23T06:24:17;6.77;;;2.03;;
7935;SDS011;4013;49.744;8.118;2024-02-23T06:26:44;2.10;;;0.90;;
7935;SDS011;4013;49.744;8.118;2024-02-23T06:29:14;3.43;;;1.30;;
7935;SDS011;4013;49.744;8.118;2024-02-23T06:31:41;3.63;;;1.40;;
7935;SDS011;4013;49.744;8.118;2024-02-23T06:34:13;2.70;;;0.90;;
7935;SDS011;4013;49.744;8.118;2024-02-23T06:36:40;1.83;;;0.87;;
7935;SDS011;4013;49.744;8.118;2024-02-23T06:39:08;3.10;;;1.07;;
7935;SDS011;4013;49.744;8.118;2024-02-23T06:41:37;4.27;;;1.70;;
7935;SDS011;4013;49.744;8.118;2024-02-23T06:44:05;5.80;;;1.70;;
7935;SDS011;4013;49.744;8.118;2024-02-23T06:46:32;6.53;;;1.40;;
7935;SDS011;4013;49.744;8.118;2024-02-23T06:48:59;3.67;;;1.27;;
7935;SDS011;4013;49.744;8.118;2024-02-23T06:51:26;5.97;;;1.40;;
7935;SDS011;4013;49.744;8.118;2024-02-23T06:53:53;4.43;;;1.93;;
7935;SDS011;4013;49.744;8.118;2024-02-23T06:56:21;6.53;;;1.27;;
7935;SDS011;4013;49.744;8.118;2024-02-23T06:58:50;8.27;;;1.63;;
7935;SDS011;4013;49.744;8.118;2024-02-23T07:01:19;3.93;;;1.50;;
7935;SDS011;4013;49.744;8.118;2024-02-23T07:03:46;4.70;;;1.40;;
7935;SDS011;4013;49.744;8.118;2024-02-23T07:06:16;5.37;;;1.20;;
7935;SDS011;4013;49.744;8.118;2024-02-23T07:08:43;4.87;;;1.40;;
7935;SDS011;4013;49.744;8.118;2024-02-23T07:11:10;2.20;;;0.93;;
7935;SDS011;4013;49.744;8.118;2024-02-23T07:13:38;3.60;;;1.33;;
7935;SDS011;4013;49.744;8.118;2024-02-23T07:16:07;2.83;;;1.00;;
7935;SDS011;4013;49.744;8.118;2024-02-23T07:18:34;4.43;;;1.60;;
7935;SDS011;4013;49.744;8.118;2024-02-23T07:21:01;3.17;;;1.30;;
7935;SDS011;4013;49.744;8.118;2024-02-23T07:23:28;1.87;;;1.13;;
7935;SDS011;4013;49.744;8.118;2024-02-23T07:25:55;4.80;;;1.47;;
7935;SDS011;4013;49.744;8.118;2024-02-23T07:28:25;3.43;;;1.33;;
7935;SDS011;4013;49.744;8.118;2024-02-23T07:30:54;5.00;;;1.40;;
7935;SDS011;4013;49.744;8.118;2024-02-23T07:33:23;4.30;;;1.23;;
7935;SDS011;4013;49.744;8.118;2024-02-23T07:35:50;4.00;;;1.43;;
7935;SDS011;4013;49.744;8.118;2024-02-23T07:38:17;4.03;;;1.30;;
7935;SDS011;4013;49.744;8.118;2024-02-23T07:40:44;3.90;;;1.33;;
7935;SDS011;4013;49.744;8.118;2024-02-23T07:43:12;3.23;;;0.80;;
7935;SDS011;4013;49.744;8.118;2024-02-23T07:45:41;5.87;;;1.73;;
7935;SDS011;4013;49.744;8.118;2024-02-23T07:48:08;3.57;;;1.47;;
7935;SDS011;4013;49.744;8.118;2024-02-23T07:50:38;5.93;;;2.23;;
7935;SDS011;4013;49.744;8.118;2024-02-23T07:53:08;3.93;;;1.60;;
7935;SDS011;4013;49.744;8.118;2024-02-23T07:55:35;5.67;;;1.30;;
7935;SDS011;4013;49.744;8.118;2024-02-23T07:58:02;6.77;;;1.60;;
7935;SDS011;4013;49.744;8.118;2024-02-23T08:00:29;4.30;;;1.30;;
7935;SDS011;4013;49.744;8.118;2024-02-23T08:02:56;6.03;;;1.60;;
7935;SDS011;4013;49.744;8.118;2024-02-23T08:05:24;2.73;;;1.23;;
7935;SDS011;4013;49.744;8.118;2024-02-23T08:07:52;6.60;;;1.47;;
7935;SDS011;4013;49.744;8.118;2024-02-23T08:10:23;4.80;;;1.60;;
7935;SDS011;4013;49.744;8.118;2024-02-23T08:12:51;3.13;;;1.40;;
7935;SDS011;4013;49.744;8.118;2024-02-23T08:15:17;5.37;;;1.73;;
7935;SDS011;4013;49.744;8.118;2024-02-23T08:17:44;5.37;;;2.00;;
7935;SDS011;4013;49.744;8.118;2024-02-23T08:20:11;7.30;;;1.80;;
7935;SDS011;4013;49.744;8.118;2024-02-23T08:22:38;8.57;;;1.53;;
7935;SDS011;4013;49.744;8.118;2024-02-23T08:25:08;5.77;;;1.40;;
7935;SDS011;4013;49.744;8.118;2024-02-23T08:27:35;7.73;;;2.03;;
7935;SDS011;4013;49.744;8.118;2024-02-23T08:30:01;5.47;;;1.40;;
7935;SDS011;4013;49.744;8.118;2024-02-23T08:32:28;6.23;;;1.40;;
7935;SDS011;4013;49.744;8.118;2024-02-23T08:34:55;2.63;;;1.30;;
7935;SDS011;4013;49.744;8.118;2024-02-23T08:37:25;6.20;;;1.57;;
7935;SDS011;4013;49.744;8.118;2024-02-23T08:39:54;6.40;;;1.60;;
7935;SDS011;4013;49.744;8.118;2024-02-23T08:42:22;4.27;;;1.87;;
7935;SDS011;4013;49.744;8.118;2024-02-23T08:44:50;7.37;;;1.63;;
7935;SDS011;4013;49.744;8.118;2024-02-23T08:47:16;3.47;;;1.13;;
7935;SDS011;4013;49.744;8.118;2024-02-23T08:49:43;5.03;;;1.30;;
7935;SDS011;4013;49.744;8.118;2024-02-23T08:52:11;7.63;;;2.07;;
7935;SDS011;4013;49.744;8.118;2024-02-23T08:54:38;5.47;;;1.50;;
7935;SDS011;4013;49.744;8.118;2024-02-23T08:57:05;4.40;;;1.70;;
7935;SDS011;4013;49.744;8.118;2024-02-23T08:59:33;3.97;;;1.40;;
7935;SDS011;4013;49.744;8.118;2024-02-23T09:02:01;3.60;;;1.60;;
7935;SDS011;4013;49.744;8.118;2024-02-23T09:04:29;7.80;;;1.97;;
7935;SDS011;4013;49.744;8.118;2024-02-23T09:06:56;9.13;;;1.70;;
7935;SDS011;4013;49.744;8.118;2024-02-23T09:09:23;7.13;;;1.50;;
7935;SDS011;4013;49.744;8.118;2024-02-23T09:11:50;2.93;;;1.07;;
7935;SDS011;4013;49.744;8.118;2024-02-23T09:14:17;6.03;;;1.20;;
7935;SDS011;4013;49.744;8.118;2024-02-23T09:16:45;4.03;;;1.80;;
7935;SDS011;4013;49.744;8.118;2024-02-23T09:19:15;6.10;;;1.37;;
7935;SDS011;4013;49.744;8.118;2024-02-23T09:21:42;5.47;;;1.40;;
7935;SDS011;4013;49.744;8.118;2024-02-23T09:24:09;4.63;;;1.30;;
7935;SDS011;4013;49.744;8.118;2024-02-23T09:26:37;7.40;;;1.40;;
7935;SDS011;4013;49.744;8.118;2024-02-23T09:29:04;3.57;;;1.90;;
7935;SDS011;4013;49.744;8.118;2024-02-23T09:31:32;5.23;;;1.17;;
7935;SDS011;4013;49.744;8.118;2024-02-23T09:34:01;11.03;;;2.33;;
7935;SDS011;4013;49.744;8.118;2024-02-23T09:36:28;6.87;;;1.63;;
7935;SDS011;4013;49.744;8.118;2024-02-23T09:38:56;5.50;;;1.70;;
7935;SDS011;4013;49.744;8.118;2024-02-23T09:41:23;4.80;;;1.40;;
7935;SDS011;4013;49.744;8.118;2024-02-23T09:43:50;6.80;;;1.33;;
7935;SDS011;4013;49.744;8.118;2024-02-23T09:46:18;4.57;;;1.60;;
7935;SDS011;4013;49.744;8.118;2024-02-23T09:48:45;8.87;;;2.33;;
7935;SDS011;4013;49.744;8.118;2024-02-23T09:51:16;5.87;;;1.87;;
7935;SDS011;4013;49.744;8.118;2024-02-23T09:53:43;4.17;;;1.33;;
7935;SDS011;4013;49.744;8.118;2024-02-23T09:56:11;4.33;;;1.70;;
7935;SDS011;4013;49.744;8.118;2024-02-23T09:58:42;3.13;;;1.50;;
7935;SDS011;4013;49.744;8.118;2024-02-23T10:01:11;5.63;;;1.63;;
7935;SDS011;4013;49.744;8.118;2024-02-23T10:03:38;6.77;;;2.50;;
7935;SDS011;4013;49.744;8.118;2024-02-23T10:06:06;3.93;;;2.03;;
7935;SDS011;4013;49.744;8.118;2024-02-23T10:08:34;3.70;;;1.70;;
7935;SDS011;4013;49.744;8.118;2024-02-23T10:11:01;3.10;;;1.30;;
7935;SDS011;4013;49.744;8.118;2024-02-23T10:13:29;5.33;;;1.40;;
7935;SDS011;4013;49.744;8.118;2024-02-23T10:15:56;5.40;;;1.20;;
7935;SDS011;4013;49.744;8.118;2024-02-23T10:18:23;3.33;;;1.53;;
7935;SDS011;4013;49.744;8.118;2024-02-23T10:20:50;5.30;;;1.43;;
7935;SDS011;4013;49.744;8.118;2024-02-23T10:23:18;3.90;;;1.20;;
7935;SDS011;4013;49.744;8.118;2024-02-23T10:25:47;6.37;;;1.50;;
7935;SDS011;4013;49.744;8.118;2024-02-23T10:28:14;4.93;;;1.57;;
7935;SDS011;4013;49.744;8.118;2024-02-23T10:30:41;5.00;;;1.83;;
7935;SDS011;4013;49.744;8.118;2024-02-23T10:33:08;4.40;;;1.63;;
7935;SDS011;4013;49.744;8.118;2024-02-23T10:35:38;4.00;;;1.50;;
7935;SDS011;4013;49.744;8.118;2024-02-23T10:38:06;3.37;;;1.13;;
7935;SDS011;4013;49.744;8.118;2024-02-23T10:40:35;2.17;;;1.10;;
7935;SDS011;4013;49.744;8.118;2024-02-23T10:43:10;2.30;;;0.97;;
7935;SDS011;4013;49.744;8.118;2024-02-23T10:45:42;3.37;;;1.60;;
7935;SDS011;4013;49.744;8.118;2024-02-23T10:48:11;4.33;;;1.30;;
7935;SDS011;4013;49.744;8.118;2024-02-23T10:50:39;3.77;;;1.10;;
7935;SDS011;4013;49.744;8.118;2024-02-23T10:53:09;2.07;;;0.90;;
7935;SDS011;4013;49.744;8.118;2024-02-23T10:55:38;2.07;;;1.10;;
7935;SDS011;4013;49.744;8.118;2024-02-23T10:58:06;2.63;;;0.87;;
7935;SDS011;4013;49.744;8.118;2024-02-23T11:00:37;3.07;;;0.90;;
7935;SDS011;4013;49.744;8.118;2024-02-23T11:03:04;1.67;;;0.80;;
7935;SDS011;4013;49.744;8.118;2024-02-23T11:05:33;3.00;;;1.13;;
7935;SDS011;4013;49.744;8.118;2024-02-23T11:08:00;4.37;;;1.37;;
7935;SDS011;4013;49.744;8.118;2024-02-23T11:10:27;4.67;;;1.03;;
7935;SDS011;4013;49.744;8.118;2024-02-23T11:12:57;2.40;;;0.90;;
7935;SDS011;4013;49.744;8.118;2024-02-23T11:15:27;6.73;;;1.40;;
7935;SDS011;4013;49.744;8.118;2024-02-23T11:17:55;2.60;;;1.00;;
7935;SDS011;4013;49.744;8.118;2024-02-23T11:20:22;6.03;;;1.17;;
7935;SDS011;4013;49.744;8.118;2024-02-23T11:22:51;3.97;;;1.40;;
7935;SDS011;4013;49.744;8.118;2024-02-23T11:25:19;1.93;;;1.17;;
7935;SDS011;4013;49.744;8.118;2024-02-23T11:27:53;2.07;;;1.13;;
7935;SDS011;4013;49.744;8.118;2024-02-23T11:30:19;3.87;;;0.83;;
7935;SDS011;4013;49.744;8.118;2024-02-23T11:32:48;2.90;;;1.03;;
7935;SDS011;4013;49.744;8.118;2024-02-23T11:35:20;3.03;;;1.50;;
7935;SDS011;4013;49.744;8.118;2024-02-23T11:37:54;3.70;;;1.33;;
7935;SDS011;4013;49.744;8.118;2024-02-23T11:40:26;2.83;;;1.20;;
7935;SDS011;4013;49.744;8.118;2024-02-23T11:42:54;4.53;;;1.20;;
7935;SDS011;4013;49.744;8.118;2024-02-23T11:45:21;2.20;;;1.03;;
7935;SDS011;4013;49.744;8.118;2024-02-23T11:47:51;2.57;;;1.00;;
7935;SDS011;4013;49.744;8.118;2024-02-23T11:50:18;3.07;;;1.53;;
7935;SDS011;4013;49.744;8.118;2024-02-23T11:52:45;4.90;;;1.60;;
7935;SDS011;4013;49.744;8.118;2024-02-23T11:55:13;2.87;;;1.37;;
7935;SDS011;4013;49.744;8.118;2024-02-23T11:57:47;5.30;;;1.47;;
7935;SDS011;4013;49.744;8.118;2024-02-23T12:00:14;4.03;;;1.40;;
7935;SDS011;4013;49.744;8.118;2024-02-23T12:02:42;5.70;;;1.53;;
7935;SDS011;4013;49.744;8.118;2024-02-23T12:05:13;2.37;;;1.20;;
7935;SDS011;4013;49.744;8.118;2024-02-23T12:07:40;3.50;;;0.87;;
7935;SDS011;4013;49.744;8.118;2024-02-23T12:10:07;5.63;;;1.20;;
7935;SDS011;4013;49.744;8.118;2024-02-23T12:12:36;3.90;;;1.10;;
7935;SDS011;4013;49.744;8.118;2024-02-23T12:15:05;2.90;;;0.80;;
7935;SDS011;4013;49.744;8.118;2024-02-23T12:17:35;4.10;;;1.50;;
7935;SDS011;4013;49.744;8.118;2024-02-23T12:20:03;2.80;;;1.03;;
7935;SDS011;4013;49.744;8.118;2024-02-23T12:22:32;4.10;;;1.43;;
7935;SDS011;4013;49.744;8.118;2024-02-23T12:25:00;4.23;;;1.23;;
7935;SDS011;4013;49.744;8.118;2024-02-23T12:27:28;3.73;;;1.20;;
7935;SDS011;4013;49.744;8.118;2024-02-23T12:29:56;3.50;;;1.20;;
7935;SDS011;4013;49.744;8.118;2024-02-23T12:32:24;2.23;;;0.93;;
7935;SDS011;4013;49.744;8.118;2024-02-23T12:34:52;3.47;;;1.27;;
7935;SDS011;4013;49.744;8.118;2024-02-23T12:37:19;6.73;;;1.43;;
7935;SDS011;4013;49.744;8.118;2024-02-23T12:39:49;3.33;;;1.30;;
7935;SDS011;4013;49.744;8.118;2024-02-23T12:42:15;3.50;;;0.73;;
7935;SDS011;4013;49.744;8.118;2024-02-23T12:44:44;2.40;;;1.23;;
7935;SDS011;4013;49.744;8.118;2024-02-23T12:47:12;2.53;;;1.13;;
7935;SDS011;4013;49.744;8.118;2024-02-23T12:49:39;1.47;;;0.90;;
7935;SDS011;4013;49.744;8.118;2024-02-23T12:52:06;3.67;;;1.13;;
7935;SDS011;4013;49.744;8.118;2024-02-23T12:54:33;2.20;;;0.90;;
7935;SDS011;4013;49.744;8.118;2024-02-23T12:57:02;2.57;;;1.07;;
7935;SDS011;4013;49.744;8.118;2024-02-23T12:59:30;4.43;;;1.57;;
7935;SDS011;4013;49.744;8.118;2024-02-23T13:01:57;4.33;;;1.33;;
7935;SDS011;4013;49.744;8.118;2024-02-23T13:04:24;1.53;;;0.80;;
7935;SDS011;4013;49.744;8.118;2024-02-23T13:06:51;1.67;;;1.10;;
7935;SDS011;4013;49.744;8.118;2024-02-23T13:09:19;2.10;;;1.10;;
7935;SDS011;4013;49.744;8.118;2024-02-23T13:11:46;2.47;;;1.17;;
7935;SDS011;4013;49.744;8.118;2024-02-23T13:14:14;3.77;;;1.00;;
7935;SDS011;4013;49.744;8.118;2024-02-23T13:16:41;2.73;;;0.80;;
7935;SDS011;4013;49.744;8.118;2024-02-23T13:19:08;3.03;;;1.27;;
7935;SDS011;4013;49.744;8.118;2024-02-23T13:21:36;2.23;;;1.13;;
7935;SDS011;4013;49.744;8.118;2024-02-23T13:24:03;2.83;;;0.93;;
7935;SDS011;4013;49.744;8.118;2024-02-23T13:26:32;2.07;;;1.00;;
7935;SDS011;4013;49.744;8.118;2024-02-23T13:28:59;2.80;;;1.40;;
7935;SDS011;4013;49.744;8.118;2024-02-23T13:31:27;2.97;;;1.23;;
7935;SDS011;4013;49.744;8.118;2024-02-23T13:33:55;1.97;;;0.80;;
7935;SDS011;4013;49.744;8.118;2024-02-23T13:36:21;2.03;;;0.80;;
7935;SDS011;4013;49.744;8.118;2024-02-23T13:38:48;1.23;;;0.77;;
7935;SDS011;4013;49.744;8.118;2024-02-23T13:41:17;2.73;;;1.20;;
7935;SDS011;4013;49.744;8.118;2024-02-23T13:43:45;1.77;;;0.70;;
7935;SDS011;4013;49.744;8.118;2024-02-23T13:46:13;1.90;;;0.60;;
7935;SDS011;4013;49.744;8.118;2024-02-23T13:48:41;2.03;;;0.87;;
7935;SDS011;4013;49.744;8.118;2024-02-23T13:51:09;2.87;;;1.00;;
7935;SDS011;4013;49.744;8.118;2024-02-23T13:53:36;2.77;;;0.80;;
7935;SDS011;4013;49.744;8.118;2024-02-23T13:56:03;1.57;;;0.87;;
7935;SDS011;4013;49.744;8.118;2024-02-23T13:58:30;1.20;;;0.70;;
7935;SDS011;4013;49.744;8.118;2024-02-23T14:00:58;2.73;;;0.87;;
7935;SDS011;4013;49.744;8.118;2024-02-23T14:03:25;2.00;;;0.97;;
7935;SDS011;4013;49.744;8.118;2024-02-23T14:05:53;2.40;;;1.10;;
7935;SDS011;4013;49.744;8.118;2024-02-23T14:08:23;1.73;;;0.77;;
7935;SDS011;4013;49.744;8.118;2024-02-23T14:10:50;1.60;;;0.77;;
7935;SDS011;4013;49.744;8.118;2024-02-23T14:13:17;1.63;;;0.57;;
7935;SDS011;4013;49.744;8.118;2024-02-23T14:15:45;1.77;;;0.83;;
7935;SDS011;4013;49.744;8.118;2024-02-23T14:18:12;2.10;;;0.90;;
7935;SDS011;4013;49.744;8.118;2024-02-23T14:20:40;2.67;;;1.10;;
7935;SDS011;4013;49.744;8.118;2024-02-23T14:23:09;1.43;;;0.67;;
7935;SDS011;4013;49.744;8.118;2024-02-23T14:25:35;2.90;;;0.77;;
7935;SDS011;4013;49.744;8.118;2024-02-23T14:28:02;2.30;;;0.90;;
7935;SDS011;4013;49.744;8.118;2024-02-23T14:30:30;1.20;;;0.97;;
7935;SDS011;4013;49.744;8.118;2024-02-23T14:32:56;2.97;;;0.70;;
7935;SDS011;4013;49.744;8.118;2024-02-23T14:35:24;1.87;;;0.77;;
7935;SDS011;4013;49.744;8.118;2024-02-23T14:37:51;3.90;;;1.00;;
7935;SDS011;4013;49.744;8.118;2024-02-23T14:40:21;2.47;;;1.10;;
7935;SDS011;4013;49.744;8.118;2024-02-23T14:42:48;0.83;;;0.70;;
7935;SDS011;4013;49.744;8.118;2024-02-23T14:45:15;1.90;;;0.77;;
7935;SDS011;4013;49.744;8.118;2024-02-23T14:47:42;1.93;;;0.80;;
7935;SDS011;4013;49.744;8.118;2024-02-23T14:50:10;4.70;;;1.27;;
7935;SDS011;4013;49.744;8.118;2024-02-23T14:52:36;1.17;;;1.00;;
7935;SDS011;4013;49.744;8.118;2024-02-23T14:55:04;2.30;;;0.80;;
7935;SDS011;4013;49.744;8.118;2024-02-23T14:57:32;2.83;;;0.90;;
7935;SDS011;4013;49.744;8.118;2024-02-23T14:59:59;2.77;;;1.37;;
7935;SDS011;4013;49.744;8.118;2024-02-23T15:02:28;2.20;;;1.10;;
7935;SDS011;4013;49.744;8.118;2024-02-23T15:04:55;3.03;;;1.23;;
7935;SDS011;4013;49.744;8.118;2024-02-23T15:07:22;3.80;;;1.37;;
7935;SDS011;4013;49.744;8.118;2024-02-23T15:09:56;1.63;;;1.00;;
7935;SDS011;4013;49.744;8.118;2024-02-23T15:12:35;1.53;;;0.80;;
7935;SDS011;4013;49.744;8.118;2024-02-23T15:15:02;2.77;;;1.30;;
7935;SDS011;4013;49.744;8.118;2024-02-23T15:17:31;2.70;;;0.90;;
7935;SDS011;4013;49.744;8.118;2024-02-23T15:19:58;2.10;;;0.93;;
7935;SDS011;4013;49.744;8.118;2024-02-23T15:22:25;1.77;;;0.87;;
7935;SDS011;4013;49.744;8.118;2024-02-23T15:24:54;4.40;;;0.93;;
7935;SDS011;4013;49.744;8.118;2024-02-23T15:27:23;1.37;;;0.70;;
7935;SDS011;4013;49.744;8.118;2024-02-23T15:29:51;2.77;;;0.80;;
7935;SDS011;4013;49.744;8.118;2024-02-23T15:32:19;3.63;;;1.40;;
7935;SDS011;4013;49.744;8.118;2024-02-23T15:34:46;2.13;;;1.00;;
7935;SDS011;4013;49.744;8.118;2024-02-23T15:37:13;2.27;;;1.23;;
7935;SDS011;4013;49.744;8.118;2024-02-23T15:39:40;2.33;;;0.60;;
7935;SDS011;4013;49.744;8.118;2024-02-23T15:42:08;1.63;;;0.70;;
7935;SDS011;4013;49.744;8.118;2024-02-23T15:44:35;3.73;;;1.00;;
7935;SDS011;4013;49.744;8.118;2024-02-23T15:47:04;2.30;;;1.07;;
7935;SDS011;4013;49.744;8.118;2024-02-23T15:49:31;4.80;;;1.37;;
7935;SDS011;4013;49.744;8.118;2024-02-23T15:51:59;1.87;;;0.87;;
7935;SDS011;4013;49.744;8.118;2024-02-23T15:54:26;1.97;;;1.20;;
7935;SDS011;4013;49.744;8.118;2024-02-23T15:56:55;1.23;;;0.90;;
7935;SDS011;4013;49.744;8.118;2024-02-23T15:59:22;3.50;;;1.00;;
7935;SDS011;4013;49.744;8.118;2024-02-23T16:01:49;5.17;;;1.17;;
7935;SDS011;4013;49.744;8.118;2024-02-23T16:04:17;5.57;;;1.33;;
7935;SDS011;4013;49.744;8.118;2024-02-23T16:06:44;2.37;;;1.17;;
7935;SDS011;4013;49.744;8.118;2024-02-23T16:09:11;3.13;;;1.13;;
7935;SDS011;4013;49.744;8.118;2024-02-23T16:11:42;4.03;;;0.87;;
7935;SDS011;4013;49.744;8.118;2024-02-23T16:14:11;2.47;;;1.30;;
7935;SDS011;4013;49.744;8.118;2024-02-23T16:16:38;1.57;;;0.97;;
7935;SDS011;4013;49.744;8.118;2024-02-23T16:19:08;2.67;;;1.00;;
7935;SDS011;4013;49.744;8.118;2024-02-23T16:21:38;3.13;;;1.20;;
7935;SDS011;4013;49.744;8.118;2024-02-23T16:24:09;4.30;;;1.10;;
7935;SDS011;4013;49.744;8.118;2024-02-23T16:26:36;3.27;;;0.90;;
7935;SDS011;4013;49.744;8.118;2024-02-23T16:29:03;4.03;;;2.73;;
7935;SDS011;4013;49.744;8.118;2024-02-23T16:31:31;3.30;;;1.07;;
7935;SDS011;4013;49.744;8.118;2024-02-23T16:34:00;2.70;;;1.00;;
7935;SDS011;4013;49.744;8.118;2024-02-23T16:36:27;2.73;;;1.17;;
7935;SDS011;4013;49.744;8.118;2024-02-23T16:38:55;2.83;;;1.00;;
7935;SDS011;4013;49.744;8.118;2024-02-23T16:41:22;1.77;;;0.80;;
7935;SDS011;4013;49.744;8.118;2024-02-23T16:43:50;4.73;;;1.20;;
7935;SDS011;4013;49.744;8.118;2024-02-23T16:46:17;3.20;;;1.33;;
7935;SDS011;4013;49.744;8.118;2024-02-23T16:48:44;4.27;;;1.73;;
7935;SDS011;4013;49.744;8.118;2024-02-23T16:51:11;3.47;;;1.13;;
7935;SDS011;4013;49.744;8.118;2024-02-23T16:53:38;3.07;;;1.10;;
7935;SDS011;4013;49.744;8.118;2024-02-23T16:56:07;4.60;;;1.47;;
7935;SDS011;4013;49.744;8.118;2024-02-23T16:58:35;3.10;;;1.20;;
7935;SDS011;4013;49.744;8.118;2024-02-23T17:01:03;4.07;;;1.47;;
7935;SDS011;4013;49.744;8.118;2024-02-23T17:03:31;2.53;;;1.20;;
7935;SDS011;4013;49.744;8.118;2024-02-23T17:05:58;2.73;;;1.60;;
7935;SDS011;4013;49.744;8.118;2024-02-23T17:08:29;2.50;;;1.10;;
7935;SDS011;4013;49.744;8.118;2024-02-23T17:10:56;2.07;;;1.30;;
7935;SDS011;4013;49.744;8.118;2024-02-23T17:13:25;1.80;;;1.10;;
7935;SDS011;4013;49.744;8.118;2024-02-23T17:15:52;3.10;;;1.40;;
7935;SDS011;4013;49.744;8.118;2024-02-23T17:18:19;1.33;;;0.80;;
7935;SDS011;4013;49.744;8.118;2024-02-23T17:20:48;5.00;;;1.83;;
7935;SDS011;4013;49.744;8.118;2024-02-23T17:23:14;1.87;;;1.20;;
7935;SDS011;4013;49.744;8.118;2024-02-23T17:25:42;1.53;;;1.13;;
7935;SDS011;4013;49.744;8.118;2024-02-23T17:28:10;2.13;;;1.23;;
7935;SDS011;4013;49.744;8.118;2024-02-23T17:30:40;2.50;;;1.67;;
7935;SDS011;4013;49.744;8.118;2024-02-23T17:33:08;4.17;;;1.37;;
7935;SDS011;4013;49.744;8.118;2024-02-23T17:35:35;4.83;;;1.50;;
7935;SDS011;4013;49.744;8.118;2024-02-23T17:38:02;3.80;;;1.30;;
7935;SDS011;4013;49.744;8.118;2024-02-23T17:40:29;3.40;;;2.20;;
7935;SDS011;4013;49.744;8.118;2024-02-23T17:42:56;5.00;;;1.97;;
7935;SDS011;4013;49.744;8.118;2024-02-23T17:45:23;2.87;;;1.67;;
7935;SDS011;4013;49.744;8.118;2024-02-23T17:47:51;3.17;;;1.47;;
7935;SDS011;4013;49.744;8.118;2024-02-23T17:50:19;2.67;;;1.90;;
7935;SDS011;4013;49.744;8.118;2024-02-23T17:52:46;3.40;;;1.87;;
7935;SDS011;4013;49.744;8.118;2024-02-23T17:55:14;2.67;;;1.70;;
7935;SDS011;4013;49.744;8.118;2024-02-23T17:57:41;3.60;;;2.10;;
7935;SDS011;4013;49.744;8.118;2024-02-23T18:00:09;3.83;;;2.00;;
7935;SDS011;4013;49.744;8.118;2024-02-23T18:02:37;5.40;;;1.80;;
7935;SDS011;4013;49.744;8.118;2024-02-23T18:05:07;5.70;;;1.67;;
7935;SDS011;4013;49.744;8.118;2024-02-23T18:07:34;2.20;;;1.20;;
7935;SDS011;4013;49.744;8.118;2024-02-23T18:10:01;3.93;;;1.60;;
7935;SDS011;4013;49.744;8.118;2024-02-23T18:12:28;4.73;;;1.50;;
7935;SDS011;4013;49.744;8.118;2024-02-23T18:14:55;7.17;;;2.07;;
7935;SDS011;4013;49.744;8.118;2024-02-23T18:17:22;3.67;;;1.33;;
7935;SDS011;4013;49.744;8.118;2024-02-23T18:19:49;3.73;;;1.50;;
7935;SDS011;4013;49.744;8.118;2024-02-23T18:22:17;5.17;;;1.73;;
7935;SDS011;4013;49.744;8.118;2024-02-23T18:24:44;2.57;;;1.40;;
7935;SDS011;4013;49.744;8.118;2024-02-23T18:27:12;6.30;;;1.40;;
7935;SDS011;4013;49.744;8.118;2024-02-23T18:29:39;2.87;;;1.57;;
7935;SDS011;4013;49.744;8.118;2024-02-23T18:32:07;2.97;;;1.87;;
7935;SDS011;4013;49.744;8.118;2024-02-23T18:34:34;23.07;;;12.53;;
7935;SDS011;4013;49.744;8.118;2024-02-23T18:37:01;9.13;;;5.03;;
7935;SDS011;4013;49.744;8.118;2024-02-23T18:39:30;7.27;;;4.37;;
7935;SDS011;4013;49.744;8.118;2024-02-23T18:41:58;9.97;;;4.70;;
7935;SDS011;4013;49.744;8.118;2024-02-23T18:44:25;10.50;;;4.83;;
7935;SDS011;4013;49.744;8.118;2024-02-23T18:46:51;4.47;;;2.37;;
7935;SDS011;4013;49.744;8.118;2024-02-23T18:49:18;4.40;;;2.53;;
7935;SDS011;4013;49.744;8.118;2024-02-23T18:51:45;3.53;;;1.90;;
7935;SDS011;4013;49.744;8.118;2024-02-23T18:54:14;4.17;;;2.03;;
7935;SDS011;4013;49.744;8.118;2024-02-23T18:56:42;2.30;;;1.80;;
7935;SDS011;4013;49.744;8.118;2024-02-23T18:59:09;4.83;;;2.43;;
7935;SDS011;4013;49.744;8.118;2024-02-23T19:01:36;7.33;;;2.10;;
7935;SDS011;4013;49.744;8.118;2024-02-23T19:04:04;5.90;;;2.30;;
7935;SDS011;4013;49.744;8.118;2024-02-23T19:06:31;2.40;;;1.80;;
7935;SDS011;4013;49.744;8.118;2024-02-23T19:08:58;4.93;;;2.13;;
7935;SDS011;4013;49.744;8.118;2024-02-23T19:11:28;7.37;;;2.50;;
7935;SDS011;4013;49.744;8.118;2024-02-23T19:13:57;7.93;;;2.90;;
7935;SDS011;4013;49.744;8.118;2024-02-23T19:16:24;10.80;;;4.43;;
7935;SDS011;4013;49.744;8.118;2024-02-23T19:18:51;7.27;;;3.77;;
7935;SDS011;4013;49.744;8.118;2024-02-23T19:21:19;5.87;;;2.93;;
7935;SDS011;4013;49.744;8.118;2024-02-23T19:23:46;6.93;;;3.37;;
7935;SDS011;4013;49.744;8.118;2024-02-23T19:26:14;11.83;;;4.00;;
7935;SDS011;4013;49.744;8.118;2024-02-23T19:28:40;5.70;;;3.30;;
7935;SDS011;4013;49.744;8.118;2024-02-23T19:31:10;6.30;;;3.10;;
7935;SDS011;4013;49.744;8.118;2024-02-23T19:33:37;5.80;;;2.43;;
7935;SDS011;4013;49.744;8.118;2024-02-23T19:36:04;4.83;;;2.60;;
7935;SDS011;4013;49.744;8.118;2024-02-23T19:38:34;5.40;;;2.50;;
7935;SDS011;4013;49.744;8.118;2024-02-23T19:41:03;4.10;;;2.50;;
7935;SDS011;4013;49.744;8.118;2024-02-23T19:43:30;4.47;;;2.87;;
7935;SDS011;4013;49.744;8.118;2024-02-23T19:45:57;4.70;;;2.43;;
7935;SDS011;4013;49.744;8.118;2024-02-23T19:48:25;5.30;;;2.40;;
7935;SDS011;4013;49.744;8.118;2024-02-23T19:50:52;5.33;;;2.90;;
7935;SDS011;4013;49.744;8.118;2024-02-23T19:53:19;4.00;;;2.30;;
7935;SDS011;4013;49.744;8.118;2024-02-23T19:55:46;6.13;;;2.40;;
7935;SDS011;4013;49.744;8.118;2024-02-23T19:58:13;11.43;;;6.77;;
7935;SDS011;4013;49.744;8.118;2024-02-23T20:00:39;17.13;;;9.23;;
7935;SDS011;4013;49.744;8.118;2024-02-23T20:03:06;8.40;;;4.80;;
7935;SDS011;4013;49.744;8.118;2024-02-23T20:05:34;5.97;;;3.17;;
7935;SDS011;4013;49.744;8.118;2024-02-23T20:08:01;7.00;;;4.03;;
7935;SDS011;4013;49.744;8.118;2024-02-23T20:10:29;5.50;;;2.90;;
7935;SDS011;4013;49.744;8.118;2024-02-23T20:12:55;6.80;;;4.40;;
7935;SDS011;4013;49.744;8.118;2024-02-23T20:15:22;6.87;;;2.77;;
7935;SDS011;4013;49.744;8.118;2024-02-23T20:17:50;6.67;;;2.57;;
7935;SDS011;4013;49.744;8.118;2024-02-23T20:20:18;6.07;;;2.30;;
7935;SDS011;4013;49.744;8.118;2024-02-23T20:22:46;5.40;;;2.50;;
7935;SDS011;4013;49.744;8.118;2024-02-23T20:25:13;4.63;;;2.10;;
7935;SDS011;4013;49.744;8.118;2024-02-23T20:27:40;3.73;;;2.00;;
7935;SDS011;4013;49.744;8.118;2024-02-23T20:30:08;2.43;;;1.83;;
7935;SDS011;4013;49.744;8.118;2024-02-23T20:32:37;4.20;;;2.40;;
7935;SDS011;4013;49.744;8.118;2024-02-23T20:35:05;6.87;;;3.27;;
7935;SDS011;4013;49.744;8.118;2024-02-23T20:37:34;5.03;;;3.13;;
7935;SDS011;4013;49.744;8.118;2024-02-23T20:40:05;6.20;;;1.93;;
7935;SDS011;4013;49.744;8.118;2024-02-23T20:42:33;6.53;;;1.97;;
7935;SDS011;4013;49.744;8.118;2024-02-23T20:45:00;4.50;;;1.90;;
7935;SDS011;4013;49.744;8.118;2024-02-23T20:47:27;5.73;;;2.73;;
7935;SDS011;4013;49.744;8.118;2024-02-23T20:49:54;5.57;;;2.30;;